Time;durP1;ratioP1;P1;durP2;ratioP2;P2;SDS_P1;SDS_P2;PMS_P1;PMS_P2;Temp;Humidity;BMP_temperature;BMP_pressure;BME280_temperature;BME280_humidity;BME280_pressure;Samples;Min_cycle;Max_cycle;Signal;HPM_P1;HPM_P2
2022/05/27 00:00:54;;;;;;;;;;;;;;;20.16;100.00;99209.09;5008176;28;19921;-50
2022/05/27 00:03:20;;;;;;;;;;;;;;;19.22;100.00;99205.66;5005454;28;20492;-46
2022/05/27 00:05:48;;;;;;;;;;;;;;;20.42;100.00;99208.16;5023716;28;19925;-49
2022/05/27 00:08:13;;;;;;;;;;;;;;;20.09;100.00;99207.84;5023982;28;19917;-48
2022/05/27 00:10:38;;;;;;;;;;;;;;;21.09;100.00;99207.78;5027126;28;19932;-47
2022/05/27 00:13:04;;;;;;;;;;;;;;;20.77;100.00;99212.72;5025878;28;19921;-47
2022/05/27 00:15:29;;;;;;;;;;;;;;;19.05;100.00;99208.53;5022564;28;20322;-49
2022/05/27 00:17:54;;;;;;;;;;;;;;;19.26;100.00;99203.69;5023433;28;19939;-49
2022/05/27 00:20:20;;;;;;;;;;;;;;;20.16;100.00;99203.88;5026429;28;19970;-49
2022/05/27 00:22:45;;;;;;;;;;;;;;;20.18;100.00;99199.38;5004496;28;19927;-49
2022/05/27 00:25:10;;;;;;;;;;;;;;;20.12;100.00;99191.97;5007728;28;19927;-46
2022/05/27 00:27:36;;;;;;;;;;;;;;;20.39;100.00;99194.44;5025524;28;19974;-51
2022/05/27 00:30:01;;;;;;;;;;;;;;;20.01;100.00;99185.69;5030312;28;19925;-47
2022/05/27 00:32:26;;;;;;;;;;;;;;;20.97;100.00;99186.91;5019986;28;19916;-46
2022/05/27 00:34:51;;;;;;;;;;;;;;;20.97;100.00;99184.28;5037162;28;19987;-47
2022/05/27 00:37:17;;;;;;;;;;;;;;;20.44;100.00;99192.34;5033032;28;19928;-50
2022/05/27 00:39:42;;;;;;;;;;;;;;;20.43;100.00;99182.81;5033398;28;19916;-47
2022/05/27 00:42:08;;;;;;;;;;;;;;;19.74;100.00;99190.16;5030231;28;19920;-48
2022/05/27 00:44:33;;;;;;;;;;;;;;;20.21;100.00;99191.34;5028067;28;20330;-49
2022/05/27 00:47:02;;;;;;;;;;;;;;;19.91;100.00;99186.41;5024673;28;19921;-47
2022/05/27 00:49:27;;;;;;;;;;;;;;;19.21;100.00;99185.72;5008366;28;19927;-49
2022/05/27 00:51:54;;;;;;;;;;;;;;;19.10;100.00;99185.56;5010650;28;19917;-46
2022/05/27 00:54:23;;;;;;;;;;;;;;;19.08;100.00;99179.59;5008408;28;19921;-47
2022/05/27 00:56:50;;;;;;;;;;;;;;;18.99;100.00;99185.41;5006372;28;20350;-49
2022/05/27 00:59:23;;;;;;;;;;;;;;;19.90;100.00;99175.13;5024395;28;20047;-47
2022/05/27 01:01:49;;;;;;;;;;;;;;;20.24;100.00;99175.41;5006333;28;19931;-46
2022/05/27 01:04:14;;;;;;;;;;;;;;;19.52;100.00;99175.84;5007011;28;19925;-47
2022/05/27 01:06:39;;;;;;;;;;;;;;;19.37;100.00;99172.50;5003917;28;19933;-47
2022/05/27 01:09:05;;;;;;;;;;;;;;;20.28;100.00;99169.03;5024307;28;19925;-51
2022/05/27 01:11:49;;;;;;;;;;;;;;;19.70;100.00;99170.38;5023055;28;19927;-47
2022/05/27 01:14:49;;;;;;;;;;;;;;;19.68;100.00;99169.63;5028049;28;19931;-48
2022/05/27 01:17:20;;;;;;;;;;;;;;;19.55;100.00;99167.00;4964159;28;19928;-47
2022/05/27 01:22:39;;;;;;;;;;;;;;;19.65;100.00;99174.09;5005053;28;19929;-47
2022/05/27 01:25:20;;;;;;;;;;;;;;;19.74;100.00;99167.47;5025057;28;19952;-48
2022/05/27 01:27:45;;;;;;;;;;;;;;;19.03;100.00;99176.47;5004587;28;19921;-48
2022/05/27 01:30:10;;;;;;;;;;;;;;;19.79;100.00;99175.81;5024987;28;20027;-48
2022/05/27 01:32:35;;;;;;;;;;;;;;;19.55;100.00;99178.28;5026373;28;19956;-49
2022/05/27 01:35:13;;;;;;;;;;;;;;;19.50;100.00;99176.91;5026058;28;19925;-47
2022/05/27 01:37:38;;;;;;;;;;;;;;;19.78;100.00;99168.13;5027553;28;19924;-47
2022/05/27 01:40:06;;;;;;;;;;;;;;;19.99;100.00;99169.25;5024665;28;19921;-49
2022/05/27 01:42:44;;;;;;;;;;;;;;;19.16;100.00;99171.28;5010745;28;19925;-49
2022/05/27 01:45:11;;;;;;;;;;;;;;;18.76;100.00;99164.19;5012271;28;20688;-47
2022/05/27 01:47:44;;;;;;;;;;;;;;;19.48;100.00;99169.19;5009813;28;20387;-51
2022/05/27 01:50:11;;;;;;;;;;;;;;;19.33;100.00;99172.78;5009663;28;20443;-48
2022/05/27 01:52:56;;;;;;;;;;;;;;;19.31;100.00;99161.59;5002515;28;19972;-47
2022/05/27 01:55:24;;;;;;;;;;;;;;;18.29;100.00;99160.19;5026145;28;19960;-48
2022/05/27 01:58:22;;;;;;;;;;;;;;;18.60;100.00;99153.03;5005051;28;20247;-48
2022/05/27 02:00:48;;;;;;;;;;;;;;;18.59;100.00;99154.00;4979243;28;19921;-46
2022/05/27 02:03:22;;;;;;;;;;;;;;;18.81;100.00;99151.72;5007175;28;19936;-46
2022/05/27 02:05:56;;;;;;;;;;;;;;;18.90;100.00;99154.69;5024316;28;19917;-50
2022/05/27 02:08:24;;;;;;;;;;;;;;;19.19;100.00;99144.97;5009211;28;20227;-48
2022/05/27 02:11:03;;;;;;;;;;;;;;;19.36;100.00;99151.69;5003625;28;19920;-49
2022/05/27 02:13:32;;;;;;;;;;;;;;;19.15;100.00;99149.53;5005881;28;19924;-48
2022/05/27 02:15:57;;;;;;;;;;;;;;;18.98;100.00;99142.81;5023514;28;19981;-46
2022/05/27 02:18:22;;;;;;;;;;;;;;;18.88;100.00;99151.34;5006523;28;19921;-49
2022/05/27 02:20:53;;;;;;;;;;;;;;;18.58;100.00;99139.25;5023667;28;19929;-48
2022/05/27 02:23:18;;;;;;;;;;;;;;;18.80;100.00;99134.41;5008141;28;20418;-47
2022/05/27 02:25:44;;;;;;;;;;;;;;;18.98;100.00;99137.59;5027445;28;19916;-49
2022/05/27 02:28:12;;;;;;;;;;;;;;;18.63;100.00;99138.97;5008459;28;19920;-47
2022/05/27 02:30:39;;;;;;;;;;;;;;;18.60;100.00;99147.84;5024515;28;20390;-47
2022/05/27 02:35:54;;;;;;;;;;;;;;;18.30;100.00;99135.75;4987584;28;19920;-46
2022/05/27 02:38:19;;;;;;;;;;;;;;;18.66;100.00;99131.81;5005774;28;20777;-46
2022/05/27 02:40:48;;;;;;;;;;;;;;;18.45;100.00;99138.34;5022191;28;19928;-47
2022/05/27 02:43:15;;;;;;;;;;;;;;;18.17;100.00;99129.63;5005099;28;20014;-46
2022/05/27 02:45:40;;;;;;;;;;;;;;;18.21;100.00;99131.13;5004113;28;19924;-46
2022/05/27 02:48:06;;;;;;;;;;;;;;;18.84;100.00;99134.19;5028948;28;19921;-49
2022/05/27 02:50:51;;;;;;;;;;;;;;;18.03;100.00;99137.44;5025495;28;19950;-47
2022/05/27 02:53:23;;;;;;;;;;;;;;;18.59;100.00;99135.75;5026495;28;19932;-46
2022/05/27 02:56:00;;;;;;;;;;;;;;;18.02;100.00;99135.75;5009950;28;20058;-47
2022/05/27 02:58:27;;;;;;;;;;;;;;;18.34;100.00;99132.03;5008352;28;19928;-47
2022/05/27 03:00:52;;;;;;;;;;;;;;;18.75;100.00;99126.00;5007291;28;19928;-46
2022/05/27 03:03:18;;;;;;;;;;;;;;;18.16;100.00;99127.97;5006231;28;19921;-51
2022/05/27 03:05:49;;;;;;;;;;;;;;;18.43;100.00;99129.78;5028027;28;19974;-48
2022/05/27 03:08:17;;;;;;;;;;;;;;;18.10;100.00;99123.13;5027391;28;20087;-48
2022/05/27 03:11:00;;;;;;;;;;;;;;;17.98;100.00;99122.09;5025235;28;19928;-45
2022/05/27 03:13:26;;;;;;;;;;;;;;;18.74;100.00;99134.75;5019101;28;19990;-47
2022/05/27 03:16:04;;;;;;;;;;;;;;;18.45;100.00;99128.78;5022874;28;19970;-46
2022/05/27 03:18:48;;;;;;;;;;;;;;;17.98;100.00;99125.53;5010856;28;19917;-48
2022/05/27 03:21:23;;;;;;;;;;;;;;;18.31;100.00;99137.44;5023446;28;19932;-46
2022/05/27 03:23:51;;;;;;;;;;;;;;;18.08;100.00;99133.63;5025143;28;20364;-47
2022/05/27 03:26:26;;;;;;;;;;;;;;;17.73;100.00;99138.31;5022650;28;20193;-46
2022/05/27 03:28:56;;;;;;;;;;;;;;;18.37;100.00;99136.22;5023639;28;19920;-46
2022/05/27 03:31:33;;;;;;;;;;;;;;;18.44;100.00;99136.69;5015984;28;19921;-47
2022/05/27 03:34:01;;;;;;;;;;;;;;;18.48;100.00;99135.56;5013485;28;20027;-46
2022/05/27 03:36:35;;;;;;;;;;;;;;;18.45;100.00;99140.94;5026248;28;19916;-46
2022/05/27 03:39:09;;;;;;;;;;;;;;;18.29;100.00;99143.66;5005786;28;20781;-48
2022/05/27 03:41:35;;;;;;;;;;;;;;;18.28;100.00;99150.66;5021254;28;19931;-46
2022/05/27 03:44:01;;;;;;;;;;;;;;;17.89;100.00;99146.94;5022653;28;20688;-46
2022/05/27 03:46:27;;;;;;;;;;;;;;;18.18;100.00;99162.59;5004160;28;20150;-47
2022/05/27 03:48:52;;;;;;;;;;;;;;;18.02;100.00;99156.59;5019924;28;19947;-49
2022/05/27 03:51:19;;;;;;;;;;;;;;;18.13;100.00;99160.28;5020528;28;20751;-47
2022/05/27 03:56:28;;;;;;;;;;;;;;;16.85;100.00;99164.13;5019193;28;19931;-48
2022/05/27 03:58:53;;;;;;;;;;;;;;;16.07;100.00;99161.34;5023755;28;20669;-50
2022/05/27 04:01:23;;;;;;;;;;;;;;;15.75;100.00;99149.19;5021524;28;19917;-50
2022/05/27 04:03:48;;;;;;;;;;;;;;;15.46;100.00;99146.25;5021111;28;19921;-47
2022/05/27 04:06:13;;;;;;;;;;;;;;;15.41;93.21;99143.03;5021690;28;19956;-46
2022/05/27 04:08:38;;;;;;;;;;;;;;;15.27;71.50;99122.97;5020390;28;19920;-48
2022/05/27 04:11:04;;;;;;;;;;;;;;;15.74;59.24;99121.53;5019791;28;19999;-46
2022/05/27 04:13:29;;;;;;;;;;;;;;;15.57;59.52;99132.75;5017952;28;19924;-47
2022/05/27 04:15:54;;;;;;;;;;;;;;;15.43;55.61;99131.66;5023606;28;19923;-49
2022/05/27 04:18:19;;;;;;;;;;;;;;;14.95;49.33;99138.34;5024641;28;19979;-47
2022/05/27 04:20:45;;;;;;;;;;;;;;;15.11;39.82;99132.41;5019271;28;19999;-47
2022/05/27 04:23:11;;;;;;;;;;;;;;;15.22;43.07;99145.72;5020048;28;19921;-47
2022/05/27 04:25:38;;;;;;;;;;;;;;;15.57;53.21;99154.34;5023751;28;19913;-46
2022/05/27 04:28:03;;;;;;;;;;;;;;;15.03;72.74;99203.66;5025638;28;19925;-46
2022/05/27 04:30:28;;;;;;;;;;;;;;;15.69;74.08;99202.19;5024411;28;20658;-45
2022/05/27 04:32:54;;;;;;;;;;;;;;;15.99;84.72;99199.88;5022152;28;19917;-47
2022/05/27 04:35:19;;;;;;;;;;;;;;;17.19;98.17;99211.69;5026714;28;19921;-44
2022/05/27 04:37:44;;;;;;;;;;;;;;;17.24;100.00;99238.34;5028127;28;19944;-45
2022/05/27 04:40:10;;;;;;;;;;;;;;;17.99;100.00;99230.59;5035437;28;20008;-47
2022/05/27 04:42:35;;;;;;;;;;;;;;;18.15;100.00;99239.22;5035808;28;19963;-45
2022/05/27 04:45:00;;;;;;;;;;;;;;;17.96;100.00;99234.22;5036479;28;20003;-46
2022/05/27 04:47:25;;;;;;;;;;;;;;;18.25;100.00;99229.06;5037786;28;19972;-46
2022/05/27 04:49:51;;;;;;;;;;;;;;;18.26;100.00;99227.28;5032111;28;19973;-49
2022/05/27 04:52:26;;;;;;;;;;;;;;;18.22;100.00;99220.59;5034200;28;20385;-48
2022/05/27 04:54:52;;;;;;;;;;;;;;;18.04;100.00;99223.38;5035581;28;19931;-47
2022/05/27 04:57:22;;;;;;;;;;;;;;;18.55;100.00;99222.94;5035746;28;19925;-44
2022/05/27 04:59:49;;;;;;;;;;;;;;;18.79;100.00;99231.03;5024260;28;19921;-46
2022/05/27 05:02:15;;;;;;;;;;;;;;;18.40;100.00;99216.84;5007139;28;19928;-45
2022/05/27 05:04:40;;;;;;;;;;;;;;;18.34;100.00;99225.91;5027883;28;19925;-45
2022/05/27 05:07:07;;;;;;;;;;;;;;;18.53;100.00;99222.19;5034347;28;19924;-48
2022/05/27 05:09:32;;;;;;;;;;;;;;;18.84;100.00;99225.50;5037085;28;20087;-45
2022/05/27 05:11:58;;;;;;;;;;;;;;;18.67;100.00;99222.16;5036716;28;20369;-46
2022/05/27 05:14:23;;;;;;;;;;;;;;;18.31;100.00;99220.84;5035107;28;19940;-45
2022/05/27 05:16:49;;;;;;;;;;;;;;;18.43;100.00;99223.66;5035898;28;19920;-46
2022/05/27 05:19:14;;;;;;;;;;;;;;;18.36;100.00;99228.44;5026305;28;19928;-45
2022/05/27 05:21:39;;;;;;;;;;;;;;;18.62;100.00;99229.44;5026180;28;20259;-46
2022/05/27 05:24:05;;;;;;;;;;;;;;;19.04;100.00;99232.94;5025070;28;19944;-45
2022/05/27 05:26:30;;;;;;;;;;;;;;;18.85;100.00;99232.44;5027711;28;19925;-46
2022/05/27 05:28:55;;;;;;;;;;;;;;;19.36;100.00;99225.69;5027107;28;19928;-46
2022/05/27 05:31:20;;;;;;;;;;;;;;;19.12;100.00;99230.69;5030639;28;19931;-47
2022/05/27 05:33:45;;;;;;;;;;;;;;;18.91;100.00;99221.63;5010704;28;19974;-46
2022/05/27 05:36:11;;;;;;;;;;;;;;;18.95;100.00;99226.53;5028952;28;20548;-47
2022/05/27 05:38:36;;;;;;;;;;;;;;;18.68;100.00;99223.84;5028061;28;20461;-46
2022/05/27 05:41:01;;;;;;;;;;;;;;;18.65;100.00;99220.59;5027633;28;19920;-46
2022/05/27 05:43:26;;;;;;;;;;;;;;;18.42;100.00;99224.59;5027274;28;20557;-46
2022/05/27 05:45:52;;;;;;;;;;;;;;;18.26;100.00;99222.09;5027231;28;20419;-46
2022/05/27 05:48:17;;;;;;;;;;;;;;;18.04;100.00;99227.72;5026173;28;19952;-45
2022/05/27 05:50:42;;;;;;;;;;;;;;;18.60;100.00;99220.88;5023022;28;19921;-46
2022/05/27 05:53:07;;;;;;;;;;;;;;;18.16;100.00;99227.00;5021046;28;19932;-49
2022/05/27 05:55:35;;;;;;;;;;;;;;;18.00;100.00;99231.47;5026246;28;19974;-48
2022/05/27 05:58:01;;;;;;;;;;;;;;;18.22;100.00;99239.66;5036079;28;20015;-45
2022/05/27 06:00:26;;;;;;;;;;;;;;;17.86;100.00;99240.06;5038085;28;20066;-48
2022/05/27 06:02:52;;;;;;;;;;;;;;;18.46;100.00;99242.56;5035649;28;19936;-47
2022/05/27 06:05:17;;;;;;;;;;;;;;;18.30;100.00;99249.66;5033934;28;20465;-45
2022/05/27 06:07:42;;;;;;;;;;;;;;;18.84;100.00;99249.88;5035132;28;20465;-47
2022/05/27 06:10:08;;;;;;;;;;;;;;;18.74;100.00;99249.53;5027851;28;20928;-47
2022/05/27 06:12:34;;;;;;;;;;;;;;;18.94;100.00;99255.34;5023001;28;20131;-45
2022/05/27 06:14:59;;;;;;;;;;;;;;;17.65;100.00;99257.72;5027211;28;19921;-49
2022/05/27 06:17:27;;;;;;;;;;;;;;;18.26;100.00;99243.75;5028640;28;20008;-46
2022/05/27 06:19:52;;;;;;;;;;;;;;;18.56;100.00;99253.28;5029469;28;20447;-45
2022/05/27 06:22:17;;;;;;;;;;;;;;;18.61;100.00;99251.25;5031535;28;19921;-46
2022/05/27 06:24:43;;;;;;;;;;;;;;;19.29;100.00;99255.72;5026915;28;20150;-46
2022/05/27 06:27:08;;;;;;;;;;;;;;;19.33;100.00;99256.34;5027641;28;19925;-46
2022/05/27 06:35:02;;;;;;;;;;;;;;;19.08;100.00;99262.31;5025081;28;19971;-46
2022/05/27 06:37:28;;;;;;;;;;;;;;;18.43;100.00;99260.16;5009197;28;20044;-47
2022/05/27 06:39:53;;;;;;;;;;;;;;;18.45;100.00;99266.13;5026577;28;20015;-47
2022/05/27 06:42:18;;;;;;;;;;;;;;;19.25;100.00;99258.63;5008604;28;19920;-45
2022/05/27 06:44:43;;;;;;;;;;;;;;;19.14;100.00;99265.38;5025516;28;19975;-48
2022/05/27 06:47:09;;;;;;;;;;;;;;;19.65;100.00;99262.94;5032813;28;19931;-51
2022/05/27 06:49:35;;;;;;;;;;;;;;;19.13;100.00;99255.00;5026102;28;19923;-47
2022/05/27 06:52:01;;;;;;;;;;;;;;;19.18;100.00;99264.25;5005968;28;20432;-50
2022/05/27 06:54:27;;;;;;;;;;;;;;;18.61;100.00;99269.50;5025997;28;19929;-47
2022/05/27 06:56:52;;;;;;;;;;;;;;;19.13;100.00;99261.06;5008373;28;19932;-46
2022/05/27 06:59:18;;;;;;;;;;;;;;;18.96;100.00;99263.91;5033248;28;19983;-47
2022/05/27 07:01:44;;;;;;;;;;;;;;;19.35;100.00;99259.72;5032777;28;19963;-45
2022/05/27 07:04:09;;;;;;;;;;;;;;;19.13;100.00;99265.44;5028256;28;19925;-46
2022/05/27 07:06:38;;;;;;;;;;;;;;;19.14;100.00;99265.38;5028508;28;20107;-47
2022/05/27 07:09:05;;;;;;;;;;;;;;;19.01;100.00;99272.28;5028316;28;20397;-49
2022/05/27 07:11:31;;;;;;;;;;;;;;;18.35;100.00;99250.19;5030522;28;20062;-48
2022/05/27 07:13:56;;;;;;;;;;;;;;;19.33;100.00;99259.81;5029478;28;20857;-48
2022/05/27 07:16:21;;;;;;;;;;;;;;;19.61;100.00;99256.28;5029493;28;19971;-48
2022/05/27 07:18:46;;;;;;;;;;;;;;;19.68;100.00;99258.47;5028134;28;19962;-46
2022/05/27 07:21:12;;;;;;;;;;;;;;;19.66;100.00;99253.34;5028098;28;20404;-46
2022/05/27 07:23:37;;;;;;;;;;;;;;;18.96;100.00;99254.31;5030799;28;19917;-46
2022/05/27 07:26:02;;;;;;;;;;;;;;;20.32;100.00;99254.22;5027103;28;19917;-45
2022/05/27 07:28:28;;;;;;;;;;;;;;;20.61;100.00;99257.44;5025895;28;20958;-49
2022/05/27 07:30:53;;;;;;;;;;;;;;;20.24;100.00;99246.03;5030186;28;19921;-48
2022/05/27 07:33:19;;;;;;;;;;;;;;;19.95;100.00;99259.28;5025955;28;19924;-47
2022/05/27 07:35:44;;;;;;;;;;;;;;;19.66;100.00;99258.56;5030139;28;20491;-50
2022/05/27 07:38:09;;;;;;;;;;;;;;;20.31;100.00;99270.81;5027672;28;19916;-47
2022/05/27 07:40:35;;;;;;;;;;;;;;;20.77;100.00;99251.97;5026067;28;20027;-47
2022/05/27 07:43:00;;;;;;;;;;;;;;;20.74;100.00;99249.59;5025943;28;20413;-48
2022/05/27 07:45:29;;;;;;;;;;;;;;;20.55;100.00;99254.38;5025607;28;20429;-47
2022/05/27 07:47:55;;;;;;;;;;;;;;;19.88;100.00;99268.47;5025589;28;19932;-46
2022/05/27 07:50:20;;;;;;;;;;;;;;;20.86;100.00;99261.81;5026476;28;19921;-47
2022/05/27 07:52:48;;;;;;;;;;;;;;;20.80;100.00;99256.16;5030227;28;19921;-47
2022/05/27 07:55:14;;;;;;;;;;;;;;;20.02;100.00;99262.31;5028000;28;19974;-47
2022/05/27 07:57:42;;;;;;;;;;;;;;;19.69;100.00;99258.41;5025606;28;20394;-48
2022/05/27 08:00:08;;;;;;;;;;;;;;;19.60;100.00;99256.34;5023203;28;20620;-50
2022/05/27 08:02:34;;;;;;;;;;;;;;;19.01;100.00;99256.63;5024255;28;19925;-47
2022/05/27 08:04:59;;;;;;;;;;;;;;;19.07;100.00;99268.44;5024783;28;20801;-47
2022/05/27 08:07:26;;;;;;;;;;;;;;;19.40;100.00;99263.69;5026795;28;19968;-50
2022/05/27 08:09:51;;;;;;;;;;;;;;;19.53;100.00;99262.91;5024283;28;20542;-49
2022/05/27 08:12:16;;;;;;;;;;;;;;;18.90;100.00;99265.13;5023815;28;19921;-50
2022/05/27 08:14:41;;;;;;;;;;;;;;;19.34;100.00;99264.09;5025154;28;19925;-49
2022/05/27 08:17:07;;;;;;;;;;;;;;;19.16;100.00;99260.88;5026281;28;19921;-47
2022/05/27 08:19:32;;;;;;;;;;;;;;;19.54;100.00;99261.97;5025177;28;19925;-49
2022/05/27 08:21:57;;;;;;;;;;;;;;;19.36;100.00;99258.78;5025710;28;19970;-47
2022/05/27 08:24:22;;;;;;;;;;;;;;;18.83;100.00;99273.44;5023830;28;19924;-49
2022/05/27 08:26:48;;;;;;;;;;;;;;;19.10;100.00;99276.94;5023999;28;19924;-49
2022/05/27 08:29:13;;;;;;;;;;;;;;;18.81;100.00;99269.13;5004239;28;19925;-46
2022/05/27 08:31:39;;;;;;;;;;;;;;;18.63;100.00;99275.44;5023163;28;20047;-46
2022/05/27 08:39:35;;;;;;;;;;;;;;;19.87;100.00;99266.81;5007249;28;20439;-47
2022/05/27 08:42:04;;;;;;;;;;;;;;;20.35;100.00;99267.06;5021439;28;19920;-50
2022/05/27 08:44:34;;;;;;;;;;;;;;;21.48;100.00;99257.44;5022374;28;19925;-46
2022/05/27 08:47:15;;;;;;;;;;;;;;;20.95;100.00;99259.50;5005540;28;20552;-48
2022/05/27 08:49:41;;;;;;;;;;;;;;;20.85;100.00;99254.91;5003529;28;19921;-49
2022/05/27 08:52:13;;;;;;;;;;;;;;;21.36;100.00;99263.53;5004476;28;19925;-48
2022/05/27 08:54:46;;;;;;;;;;;;;;;21.44;100.00;99240.25;5004473;28;20756;-49
2022/05/27 09:00:14;;;;;;;;;;;;;;;20.91;100.00;99237.91;5010610;28;19935;-48
2022/05/27 09:02:43;;;;;;;;;;;;;;;20.23;100.00;99241.72;5024972;28;19924;-47
2022/05/27 09:05:15;;;;;;;;;;;;;;;19.67;100.00;99254.19;5006147;28;19920;-48
2022/05/27 09:07:53;;;;;;;;;;;;;;;19.69;100.00;99247.13;5022365;28;19925;-51
2022/05/27 09:10:23;;;;;;;;;;;;;;;18.86;100.00;99262.78;5007988;28;20007;-50
2022/05/27 09:12:58;;;;;;;;;;;;;;;18.80;100.00;99258.81;5003396;28;20629;-51
2022/05/27 09:15:26;;;;;;;;;;;;;;;18.31;100.00;99257.34;5023538;28;20011;-50
2022/05/27 09:18:11;;;;;;;;;;;;;;;18.42;100.00;99263.72;5022160;28;19924;-48
2022/05/27 09:20:44;;;;;;;;;;;;;;;18.86;100.00;99265.41;5014267;28;19928;-51
2022/05/27 09:23:18;;;;;;;;;;;;;;;19.28;100.00;99263.66;5027399;28;20810;-51
2022/05/27 09:25:52;;;;;;;;;;;;;;;20.26;100.00;99257.22;5027905;28;19928;-48
2022/05/27 09:28:27;;;;;;;;;;;;;;;20.18;100.00;99249.06;5030834;28;19931;-50
2022/05/27 09:30:54;;;;;;;;;;;;;;;19.88;100.00;99247.56;5030136;28;20266;-49
2022/05/27 09:33:23;;;;;;;;;;;;;;;19.82;100.00;99242.75;5007805;28;19925;-48
2022/05/27 09:35:50;;;;;;;;;;;;;;;20.54;100.00;99240.47;5024029;28;19921;-47
2022/05/27 09:38:29;;;;;;;;;;;;;;;20.01;100.00;99258.03;5027354;28;19928;-51
2022/05/27 09:40:54;;;;;;;;;;;;;;;20.30;100.00;99247.38;5006555;28;19928;-51
2022/05/27 09:43:22;;;;;;;;;;;;;;;20.77;100.00;99251.97;5027351;28;19925;-51
2022/05/27 09:45:52;;;;;;;;;;;;;;;22.16;100.00;99236.69;5027551;28;19921;-49
2022/05/27 09:48:17;;;;;;;;;;;;;;;20.99;100.00;99247.84;5012369;28;19931;-50
2022/05/27 09:50:43;;;;;;;;;;;;;;;20.63;100.00;99239.03;5024723;28;19921;-50
2022/05/27 09:53:11;;;;;;;;;;;;;;;18.62;100.00;99245.09;5008793;28;20348;-52
2022/05/27 09:55:49;;;;;;;;;;;;;;;20.11;100.00;99239.97;5026493;28;20011;-50
2022/05/27 09:58:14;;;;;;;;;;;;;;;19.08;100.00;99251.88;5013445;28;19921;-52
2022/05/27 10:00:41;;;;;;;;;;;;;;;19.22;100.00;99250.03;5011577;28;19931;-52
2022/05/27 10:03:19;;;;;;;;;;;;;;;20.63;100.00;99234.63;5029809;28;19920;-51
2022/05/27 10:05:49;;;;;;;;;;;;;;;19.19;100.00;99255.47;5033469;28;19924;-50
2022/05/27 10:08:24;;;;;;;;;;;;;;;18.50;100.00;99259.72;5028334;28;19929;-50
2022/05/27 10:10:49;;;;;;;;;;;;;;;17.83;100.00;99269.72;5029243;28;19947;-47
2022/05/27 10:13:30;;;;;;;;;;;;;;;18.30;100.00;99265.28;5030098;28;20704;-52
2022/05/27 10:16:08;;;;;;;;;;;;;;;18.75;100.00;99266.06;5026628;28;19921;-48
2022/05/27 10:18:33;;;;;;;;;;;;;;;19.49;100.00;99266.66;5027508;28;20792;-49
2022/05/27 10:21:01;;;;;;;;;;;;;;;20.00;100.00;99262.44;5012668;28;19939;-49
2022/05/27 10:23:28;;;;;;;;;;;;;;;19.63;100.00;99249.13;5014052;28;19939;-48
2022/05/27 10:25:53;;;;;;;;;;;;;;;19.63;100.00;99254.38;5028529;28;19927;-51
2022/05/27 10:28:36;;;;;;;;;;;;;;;19.99;100.00;99247.69;5029500;28;19925;-47
2022/05/27 10:31:14;;;;;;;;;;;;;;;19.97;100.00;99240.88;5033043;28;19955;-48
2022/05/27 10:33:41;;;;;;;;;;;;;;;19.70;100.00;99238.31;5032636;28;19920;-51
2022/05/27 10:36:25;;;;;;;;;;;;;;;18.55;100.00;99249.00;5033570;28;19937;-51
2022/05/27 10:38:56;;;;;;;;;;;;;;;18.66;100.00;99262.22;5029576;28;19931;-51
2022/05/27 10:41:34;;;;;;;;;;;;;;;18.79;100.00;99257.13;5030412;28;20405;-49
2022/05/27 10:44:18;;;;;;;;;;;;;;;19.69;100.00;99258.41;5014318;28;20032;-48
2022/05/27 10:46:48;;;;;;;;;;;;;;;19.82;100.00;99263.66;5027149;28;19967;-47
2022/05/27 10:49:29;;;;;;;;;;;;;;;19.32;100.00;99259.94;5011954;28;19924;-50
2022/05/27 10:52:00;;;;;;;;;;;;;;;19.90;100.00;99245.69;5032506;28;19924;-50
2022/05/27 10:54:44;;;;;;;;;;;;;;;20.45;100.00;99262.03;5031664;28;20496;-52
2022/05/27 11:02:56;;;;;;;;;;;;;;;18.57;100.00;99252.38;5033465;28;19978;-49
2022/05/27 11:05:30;;;;;;;;;;;;;;;19.33;100.00;99241.53;5015359;28;19924;-51
2022/05/27 11:07:59;;;;;;;;;;;;;;;19.79;100.00;99232.50;5037709;28;19952;-49
2022/05/27 11:10:43;;;;;;;;;;;;;;;19.08;100.00;99241.41;5015205;28;19964;-48
2022/05/27 11:16:11;;;;;;;;;;;;;;;18.95;100.00;99246.56;5037265;28;20005;-49
2022/05/27 11:19:05;;;;;;;;;;;;;;;19.97;100.00;99241.72;5030643;28;19995;-48
2022/05/27 11:21:48;;;;;;;;;;;;;;;20.26;100.00;99234.53;4957954;28;19933;-52
2022/05/27 11:24:16;;;;;;;;;;;;;;;19.96;100.00;99232.22;5028601;28;19924;-51
2022/05/27 11:26:51;;;;;;;;;;;;;;;20.32;100.00;99235.91;5013783;28;20800;-50
2022/05/27 11:29:35;;;;;;;;;;;;;;;21.24;100.00;99224.19;5015397;28;19952;-52
2022/05/27 11:32:01;;;;;;;;;;;;;;;20.96;100.00;99240.19;5011812;28;19924;-52
2022/05/27 11:34:34;;;;;;;;;;;;;;;21.26;100.00;99235.41;5031978;28;19988;-48
2022/05/27 11:37:02;;;;;;;;;;;;;;;19.92;98.21;99248.22;5011751;28;20795;-48
2022/05/27 11:39:30;;;;;;;;;;;;;;;19.65;100.00;99236.81;5028195;28;20200;-49
2022/05/27 11:42:27;;;;;;;;;;;;;;;20.45;100.00;99236.69;5027373;28;20350;-46
2022/05/27 11:44:55;;;;;;;;;;;;;;;20.52;100.00;99236.28;4995848;28;19983;-50
2022/05/27 11:47:54;;;;;;;;;;;;;;;20.24;98.84;99238.19;5030018;28;20521;-51
2022/05/27 11:50:22;;;;;;;;;;;;;;;19.84;93.54;99226.03;4980846;28;19956;-52
2022/05/27 11:52:48;;;;;;;;;;;;;;;20.88;93.09;99233.72;5029282;28;20627;-48
2022/05/27 11:55:25;;;;;;;;;;;;;;;20.16;86.09;99224.78;5025900;28;19917;-50
2022/05/27 11:57:56;;;;;;;;;;;;;;;20.32;90.09;99222.81;5032121;28;19927;-46
2022/05/27 12:00:22;;;;;;;;;;;;;;;20.24;87.96;99232.97;5035889;28;19928;-48
2022/05/27 12:02:50;;;;;;;;;;;;;;;21.22;92.38;99214.78;5014436;28;19927;-51
2022/05/27 12:05:20;;;;;;;;;;;;;;;21.34;87.17;99218.28;5011143;28;19982;-51
2022/05/27 12:07:55;;;;;;;;;;;;;;;21.50;89.80;99218.84;5009120;28;20134;-51
2022/05/27 12:10:24;;;;;;;;;;;;;;;21.67;87.70;99215.00;5024484;28;19924;-49
2022/05/27 12:12:51;;;;;;;;;;;;;;;20.66;85.07;99212.63;5030351;28;20404;-48
2022/05/27 12:15:23;;;;;;;;;;;;;;;21.28;85.59;99215.16;5029320;28;20008;-48
2022/05/27 12:17:49;;;;;;;;;;;;;;;21.02;87.48;99218.81;5011942;28;19921;-52
2022/05/27 12:20:16;;;;;;;;;;;;;;;21.52;85.54;99196.81;5008042;28;19928;-50
2022/05/27 12:22:42;;;;;;;;;;;;;;;21.25;78.79;99210.13;4996644;28;20829;-49
2022/05/27 12:25:11;;;;;;;;;;;;;;;21.68;82.69;99211.41;5006346;28;19917;-51
2022/05/27 12:27:37;;;;;;;;;;;;;;;22.23;81.90;99190.69;5011842;28;19924;-48
2022/05/27 12:30:04;;;;;;;;;;;;;;;19.94;88.74;99215.78;5015435;28;19959;-49
2022/05/27 12:32:30;;;;;;;;;;;;;;;20.25;92.30;99213.69;5012394;28;20449;-47
2022/05/27 12:35:15;;;;;;;;;;;;;;;20.38;89.17;99211.91;5011253;28;19970;-49
2022/05/27 12:37:45;;;;;;;;;;;;;;;20.57;86.37;99218.50;5026415;28;19917;-49
2022/05/27 12:40:17;;;;;;;;;;;;;;;20.37;87.13;99222.50;5020608;28;20431;-48
2022/05/27 12:42:42;;;;;;;;;;;;;;;20.26;81.89;99215.38;5029818;28;19923;-51
2022/05/27 12:45:36;;;;;;;;;;;;;;;21.15;83.97;99203.06;5014062;28;19917;-50
2022/05/27 12:48:01;;;;;;;;;;;;;;;20.60;74.35;99203.44;5012567;28;20027;-47
2022/05/27 12:50:30;;;;;;;;;;;;;;;21.21;80.56;99208.72;5028854;28;20328;-49
2022/05/27 12:52:56;;;;;;;;;;;;;;;21.44;76.45;99196.56;5012658;28;20369;-48
2022/05/27 12:55:41;;;;;;;;;;;;;;;22.65;80.43;99206.66;5033682;28;20278;-46
2022/05/27 13:00:57;;;;;;;;;;;;;;;20.36;84.38;99219.03;5015204;28;20035;-49
2022/05/27 13:03:38;;;;;;;;;;;;;;;21.34;83.22;99210.44;5009471;28;19964;-48
2022/05/27 13:06:18;;;;;;;;;;;;;;;21.37;78.60;99208.44;5029979;28;19971;-52
2022/05/27 13:08:43;;;;;;;;;;;;;;;22.48;83.25;99211.44;5030273;28;19932;-47
2022/05/27 13:11:15;;;;;;;;;;;;;;;21.95;75.95;99202.44;5029194;28;19922;-52
2022/05/27 13:13:40;;;;;;;;;;;;;;;21.77;77.10;99208.09;5030622;28;20404;-47
2022/05/27 13:16:07;;;;;;;;;;;;;;;21.16;75.00;99204.75;5027362;28;20017;-50
2022/05/27 13:18:37;;;;;;;;;;;;;;;21.68;76.95;99204.38;5026117;28;20014;-50
2022/05/27 13:21:12;;;;;;;;;;;;;;;21.35;78.97;99226.03;5028286;28;19964;-51